sensor_id;sensor_type;location;lat;lon;timestamp;P1;durP1;ratioP1;P2;durP2;ratioP2
30181;SDS011;16990;49.056;9.240;2022-09-09T00:00:25;5.13;;;0.95;;
30181;SDS011;16990;49.056;9.240;2022-09-09T00:02:58;8.70;;;1.42;;
30181;SDS011;16990;49.056;9.240;2022-09-09T00:05:31;2.60;;;1.08;;
30181;SDS011;16990;49.056;9.240;2022-09-09T00:08:09;8.30;;;1.10;;
30181;SDS011;16990;49.056;9.240;2022-09-09T00:10:44;14.32;;;1.63;;
30181;SDS011;16990;49.056;9.240;2022-09-09T00:13:18;3.13;;;1.02;;
30181;SDS011;16990;49.056;9.240;2022-09-09T00:15:52;3.58;;;1.45;;
30181;SDS011;16990;49.056;9.240;2022-09-09T00:18:27;6.28;;;1.25;;
30181;SDS011;16990;49.056;9.240;2022-09-09T00:21:02;11.23;;;1.20;;
30181;SDS011;16990;49.056;9.240;2022-09-09T00:23:33;3.38;;;1.17;;
30181;SDS011;16990;49.056;9.240;2022-09-09T00:26:04;5.40;;;0.95;;
30181;SDS011;16990;49.056;9.240;2022-09-09T00:28:36;6.90;;;1.30;;
30181;SDS011;16990;49.056;9.240;2022-09-09T00:31:10;2.70;;;1.10;;
30181;SDS011;16990;49.056;9.240;2022-09-09T00:33:40;1.77;;;0.98;;
30181;SDS011;16990;49.056;9.240;2022-09-09T00:36:10;7.53;;;1.00;;
30181;SDS011;16990;49.056;9.240;2022-09-09T00:38:42;5.10;;;1.33;;
30181;SDS011;16990;49.056;9.240;2022-09-09T00:41:14;6.47;;;1.35;;
30181;SDS011;16990;49.056;9.240;2022-09-09T00:43:46;6.70;;;1.30;;
30181;SDS011;16990;49.056;9.240;2022-09-09T00:46:27;8.63;;;1.40;;
30181;SDS011;16990;49.056;9.240;2022-09-09T00:49:13;4.20;;;1.15;;
30181;SDS011;16990;49.056;9.240;2022-09-09T00:51:48;10.65;;;1.20;;
30181;SDS011;16990;49.056;9.240;2022-09-09T00:54:30;3.25;;;0.98;;
30181;SDS011;16990;49.056;9.240;2022-09-09T00:57:12;4.13;;;1.30;;
30181;SDS011;16990;49.056;9.240;2022-09-09T00:59:50;7.70;;;1.60;;
30181;SDS011;16990;49.056;9.240;2022-09-09T01:02:25;6.50;;;1.27;;
30181;SDS011;16990;49.056;9.240;2022-09-09T01:04:55;10.18;;;1.27;;
30181;SDS011;16990;49.056;9.240;2022-09-09T01:07:27;2.75;;;1.05;;
30181;SDS011;16990;49.056;9.240;2022-09-09T01:09:55;7.85;;;1.30;;
30181;SDS011;16990;49.056;9.240;2022-09-09T01:12:25;7.43;;;1.05;;
30181;SDS011;16990;49.056;9.240;2022-09-09T01:14:57;5.15;;;1.10;;
30181;SDS011;16990;49.056;9.240;2022-09-09T01:17:30;5.70;;;1.40;;
30181;SDS011;16990;49.056;9.240;2022-09-09T01:20:03;5.25;;;0.95;;
30181;SDS011;16990;49.056;9.240;2022-09-09T01:22:34;4.50;;;1.20;;
30181;SDS011;16990;49.056;9.240;2022-09-09T01:25:22;4.38;;;1.02;;
30181;SDS011;16990;49.056;9.240;2022-09-09T01:27:56;2.20;;;1.20;;
30181;SDS011;16990;49.056;9.240;2022-09-09T01:30:25;2.30;;;1.10;;
30181;SDS011;16990;49.056;9.240;2022-09-09T01:32:54;5.80;;;1.60;;
30181;SDS011;16990;49.056;9.240;2022-09-09T01:35:37;3.40;;;1.02;;
30181;SDS011;16990;49.056;9.240;2022-09-09T01:38:09;2.67;;;1.03;;
30181;SDS011;16990;49.056;9.240;2022-09-09T01:40:36;6.18;;;1.50;;
30181;SDS011;16990;49.056;9.240;2022-09-09T01:43:05;3.92;;;1.30;;
30181;SDS011;16990;49.056;9.240;2022-09-09T01:45:33;4.97;;;1.13;;
30181;SDS011;16990;49.056;9.240;2022-09-09T01:48:00;5.65;;;1.48;;
30181;SDS011;16990;49.056;9.240;2022-09-09T01:50:27;9.70;;;1.40;;
30181;SDS011;16990;49.056;9.240;2022-09-09T01:52:56;7.00;;;1.10;;
30181;SDS011;16990;49.056;9.240;2022-09-09T01:55:27;4.43;;;1.25;;
30181;SDS011;16990;49.056;9.240;2022-09-09T01:57:58;2.67;;;1.02;;
30181;SDS011;16990;49.056;9.240;2022-09-09T02:00:38;3.70;;;1.10;;
30181;SDS011;16990;49.056;9.240;2022-09-09T02:03:13;10.50;;;1.30;;
30181;SDS011;16990;49.056;9.240;2022-09-09T02:05:49;7.00;;;1.20;;
30181;SDS011;16990;49.056;9.240;2022-09-09T02:08:25;3.50;;;1.10;;
30181;SDS011;16990;49.056;9.240;2022-09-09T02:10:59;4.45;;;1.98;;
30181;SDS011;16990;49.056;9.240;2022-09-09T02:13:31;9.38;;;2.13;;
30181;SDS011;16990;49.056;9.240;2022-09-09T02:16:03;4.05;;;1.45;;
30181;SDS011;16990;49.056;9.240;2022-09-09T02:18:35;4.72;;;1.35;;
30181;SDS011;16990;49.056;9.240;2022-09-09T02:21:07;5.25;;;1.17;;
30181;SDS011;16990;49.056;9.240;2022-09-09T02:23:36;6.10;;;1.05;;
30181;SDS011;16990;49.056;9.240;2022-09-09T02:26:06;4.35;;;1.38;;
30181;SDS011;16990;49.056;9.240;2022-09-09T02:28:34;6.45;;;1.42;;
30181;SDS011;16990;49.056;9.240;2022-09-09T02:31:04;4.05;;;1.58;;
30181;SDS011;16990;49.056;9.240;2022-09-09T02:33:33;3.30;;;1.23;;
30181;SDS011;16990;49.056;9.240;2022-09-09T02:36:04;5.22;;;1.80;;
30181;SDS011;16990;49.056;9.240;2022-09-09T02:38:34;8.23;;;2.08;;
30181;SDS011;16990;49.056;9.240;2022-09-09T02:41:06;3.88;;;1.45;;
30181;SDS011;16990;49.056;9.240;2022-09-09T02:43:33;11.43;;;1.85;;
30181;SDS011;16990;49.056;9.240;2022-09-09T02:46:06;4.53;;;1.45;;
30181;SDS011;16990;49.056;9.240;2022-09-09T02:48:43;6.30;;;1.30;;
30181;SDS011;16990;49.056;9.240;2022-09-09T02:51:21;8.77;;;1.50;;
30181;SDS011;16990;49.056;9.240;2022-09-09T02:53:55;8.50;;;1.30;;
30181;SDS011;16990;49.056;9.240;2022-09-09T02:56:28;3.25;;;1.33;;
30181;SDS011;16990;49.056;9.240;2022-09-09T02:58:58;6.45;;;1.70;;
30181;SDS011;16990;49.056;9.240;2022-09-09T03:01:27;4.90;;;1.65;;
30181;SDS011;16990;49.056;9.240;2022-09-09T03:06:21;5.78;;;1.63;;
30181;SDS011;16990;49.056;9.240;2022-09-09T03:08:48;3.40;;;1.15;;
30181;SDS011;16990;49.056;9.240;2022-09-09T03:11:15;5.22;;;1.42;;
30181;SDS011;16990;49.056;9.240;2022-09-09T03:13:44;7.18;;;1.35;;
30181;SDS011;16990;49.056;9.240;2022-09-09T03:16:16;6.85;;;1.20;;
30181;SDS011;16990;49.056;9.240;2022-09-09T03:18:44;6.22;;;1.38;;
30181;SDS011;16990;49.056;9.240;2022-09-09T03:21:11;4.82;;;1.30;;
30181;SDS011;16990;49.056;9.240;2022-09-09T03:23:38;3.95;;;1.27;;
30181;SDS011;16990;49.056;9.240;2022-09-09T03:26:04;3.13;;;1.15;;
30181;SDS011;16990;49.056;9.240;2022-09-09T03:28:31;5.20;;;1.13;;
30181;SDS011;16990;49.056;9.240;2022-09-09T03:30:58;8.15;;;2.00;;
30181;SDS011;16990;49.056;9.240;2022-09-09T03:33:25;5.53;;;1.15;;
30181;SDS011;16990;49.056;9.240;2022-09-09T03:35:54;3.03;;;0.93;;
30181;SDS011;16990;49.056;9.240;2022-09-09T03:38:22;5.07;;;1.30;;
30181;SDS011;16990;49.056;9.240;2022-09-09T03:40:49;7.40;;;1.33;;
30181;SDS011;16990;49.056;9.240;2022-09-09T03:43:20;4.20;;;1.60;;
30181;SDS011;16990;49.056;9.240;2022-09-09T03:45:47;9.50;;;1.58;;
30181;SDS011;16990;49.056;9.240;2022-09-09T03:48:14;9.23;;;1.60;;
30181;SDS011;16990;49.056;9.240;2022-09-09T03:50:43;5.63;;;2.08;;
30181;SDS011;16990;49.056;9.240;2022-09-09T03:53:12;8.63;;;2.70;;
30181;SDS011;16990;49.056;9.240;2022-09-09T03:55:43;5.40;;;1.63;;
30181;SDS011;16990;49.056;9.240;2022-09-09T03:58:10;4.07;;;1.67;;
30181;SDS011;16990;49.056;9.240;2022-09-09T04:00:37;8.55;;;1.52;;
30181;SDS011;16990;49.056;9.240;2022-09-09T04:03:07;3.67;;;1.17;;
30181;SDS011;16990;49.056;9.240;2022-09-09T04:05:34;7.97;;;1.65;;
30181;SDS011;16990;49.056;9.240;2022-09-09T04:08:04;3.92;;;1.40;;
30181;SDS011;16990;49.056;9.240;2022-09-09T04:10:33;6.75;;;1.75;;
30181;SDS011;16990;49.056;9.240;2022-09-09T04:13:02;4.68;;;1.33;;
30181;SDS011;16990;49.056;9.240;2022-09-09T04:15:29;9.13;;;1.80;;
30181;SDS011;16990;49.056;9.240;2022-09-09T04:17:56;5.78;;;1.10;;
30181;SDS011;16990;49.056;9.240;2022-09-09T04:20:23;8.35;;;1.35;;
30181;SDS011;16990;49.056;9.240;2022-09-09T04:22:50;13.38;;;1.83;;
30181;SDS011;16990;49.056;9.240;2022-09-09T04:25:17;8.23;;;1.50;;
30181;SDS011;16990;49.056;9.240;2022-09-09T04:27:45;10.02;;;1.50;;
30181;SDS011;16990;49.056;9.240;2022-09-09T04:30:12;4.00;;;1.30;;
30181;SDS011;16990;49.056;9.240;2022-09-09T04:32:39;4.68;;;0.95;;
30181;SDS011;16990;49.056;9.240;2022-09-09T04:35:05;6.82;;;1.27;;
30181;SDS011;16990;49.056;9.240;2022-09-09T04:37:33;4.53;;;1.38;;
30181;SDS011;16990;49.056;9.240;2022-09-09T04:39:59;5.05;;;1.30;;
30181;SDS011;16990;49.056;9.240;2022-09-09T04:42:27;9.55;;;1.92;;
30181;SDS011;16990;49.056;9.240;2022-09-09T04:44:55;7.85;;;1.50;;
30181;SDS011;16990;49.056;9.240;2022-09-09T04:47:22;3.85;;;1.05;;
30181;SDS011;16990;49.056;9.240;2022-09-09T04:49:48;6.60;;;1.10;;
30181;SDS011;16990;49.056;9.240;2022-09-09T04:52:15;8.70;;;1.27;;
30181;SDS011;16990;49.056;9.240;2022-09-09T04:54:42;5.65;;;1.15;;
30181;SDS011;16990;49.056;9.240;2022-09-09T04:57:10;6.15;;;1.35;;
30181;SDS011;16990;49.056;9.240;2022-09-09T04:59:37;5.68;;;1.00;;
30181;SDS011;16990;49.056;9.240;2022-09-09T05:02:05;5.45;;;1.40;;
30181;SDS011;16990;49.056;9.240;2022-09-09T05:04:32;3.80;;;0.90;;
30181;SDS011;16990;49.056;9.240;2022-09-09T05:06:59;7.85;;;1.27;;
30181;SDS011;16990;49.056;9.240;2022-09-09T05:09:25;5.05;;;1.45;;
30181;SDS011;16990;49.056;9.240;2022-09-09T05:11:52;5.85;;;1.77;;
30181;SDS011;16990;49.056;9.240;2022-09-09T05:14:20;7.10;;;1.02;;
30181;SDS011;16990;49.056;9.240;2022-09-09T05:16:47;10.68;;;1.73;;
30181;SDS011;16990;49.056;9.240;2022-09-09T05:19:16;4.53;;;1.40;;
30181;SDS011;16990;49.056;9.240;2022-09-09T05:21:44;6.25;;;0.90;;
30181;SDS011;16990;49.056;9.240;2022-09-09T05:24:11;4.47;;;1.60;;
30181;SDS011;16990;49.056;9.240;2022-09-09T05:26:38;5.40;;;1.42;;
30181;SDS011;16990;49.056;9.240;2022-09-09T05:29:04;7.43;;;1.40;;
30181;SDS011;16990;49.056;9.240;2022-09-09T05:31:31;2.25;;;0.90;;
30181;SDS011;16990;49.056;9.240;2022-09-09T05:33:58;3.45;;;1.08;;
30181;SDS011;16990;49.056;9.240;2022-09-09T05:36:26;3.45;;;0.95;;
30181;SDS011;16990;49.056;9.240;2022-09-09T05:38:53;4.43;;;1.65;;
30181;SDS011;16990;49.056;9.240;2022-09-09T05:41:20;2.03;;;1.10;;
30181;SDS011;16990;49.056;9.240;2022-09-09T05:43:48;4.50;;;1.40;;
30181;SDS011;16990;49.056;9.240;2022-09-09T05:46:15;2.72;;;1.00;;
30181;SDS011;16990;49.056;9.240;2022-09-09T05:48:44;9.02;;;1.27;;
30181;SDS011;16990;49.056;9.240;2022-09-09T05:51:12;10.70;;;1.63;;
30181;SDS011;16990;49.056;9.240;2022-09-09T05:53:43;10.55;;;1.70;;
30181;SDS011;16990;49.056;9.240;2022-09-09T05:56:13;5.88;;;1.65;;
30181;SDS011;16990;49.056;9.240;2022-09-09T05:58:40;8.88;;;1.40;;
30181;SDS011;16990;49.056;9.240;2022-09-09T06:01:10;9.27;;;1.60;;
30181;SDS011;16990;49.056;9.240;2022-09-09T06:03:39;3.08;;;1.42;;
30181;SDS011;16990;49.056;9.240;2022-09-09T06:06:07;4.03;;;1.60;;
30181;SDS011;16990;49.056;9.240;2022-09-09T06:08:35;4.68;;;1.63;;
30181;SDS011;16990;49.056;9.240;2022-09-09T06:11:05;6.50;;;2.05;;
30181;SDS011;16990;49.056;9.240;2022-09-09T06:13:33;5.82;;;1.92;;
30181;SDS011;16990;49.056;9.240;2022-09-09T06:16:00;4.85;;;1.60;;
30181;SDS011;16990;49.056;9.240;2022-09-09T06:18:27;5.78;;;1.92;;
30181;SDS011;16990;49.056;9.240;2022-09-09T06:20:55;9.13;;;2.13;;
30181;SDS011;16990;49.056;9.240;2022-09-09T06:23:23;9.38;;;2.28;;
30181;SDS011;16990;49.056;9.240;2022-09-09T06:25:50;4.68;;;1.60;;
30181;SDS011;16990;49.056;9.240;2022-09-09T06:28:18;6.90;;;1.48;;
30181;SDS011;16990;49.056;9.240;2022-09-09T06:30:45;4.95;;;1.80;;
30181;SDS011;16990;49.056;9.240;2022-09-09T06:33:12;2.00;;;1.00;;
30181;SDS011;16990;49.056;9.240;2022-09-09T06:35:38;4.45;;;1.35;;
30181;SDS011;16990;49.056;9.240;2022-09-09T06:38:05;4.35;;;1.23;;
30181;SDS011;16990;49.056;9.240;2022-09-09T06:40:33;5.97;;;1.40;;
30181;SDS011;16990;49.056;9.240;2022-09-09T06:43:00;6.32;;;1.15;;
30181;SDS011;16990;49.056;9.240;2022-09-09T06:45:28;3.38;;;1.55;;
30181;SDS011;16990;49.056;9.240;2022-09-09T06:47:56;11.45;;;1.50;;
30181;SDS011;16990;49.056;9.240;2022-09-09T06:50:22;4.85;;;1.35;;
30181;SDS011;16990;49.056;9.240;2022-09-09T06:52:49;10.98;;;1.88;;
30181;SDS011;16990;49.056;9.240;2022-09-09T06:55:16;10.75;;;1.63;;
30181;SDS011;16990;49.056;9.240;2022-09-09T06:57:43;6.63;;;1.25;;
30181;SDS011;16990;49.056;9.240;2022-09-09T07:00:10;1.95;;;0.85;;
30181;SDS011;16990;49.056;9.240;2022-09-09T07:02:40;4.03;;;1.17;;
30181;SDS011;16990;49.056;9.240;2022-09-09T07:05:07;7.40;;;1.23;;
30181;SDS011;16990;49.056;9.240;2022-09-09T07:07:34;2.80;;;1.10;;
30181;SDS011;16990;49.056;9.240;2022-09-09T07:10:02;4.65;;;1.30;;
30181;SDS011;16990;49.056;9.240;2022-09-09T07:12:29;4.20;;;1.10;;
30181;SDS011;16990;49.056;9.240;2022-09-09T07:14:56;3.83;;;1.10;;
30181;SDS011;16990;49.056;9.240;2022-09-09T07:17:23;3.45;;;0.98;;
30181;SDS011;16990;49.056;9.240;2022-09-09T07:19:51;7.88;;;1.50;;
30181;SDS011;16990;49.056;9.240;2022-09-09T07:22:18;9.55;;;1.67;;
30181;SDS011;16990;49.056;9.240;2022-09-09T07:24:45;5.25;;;1.27;;
30181;SDS011;16990;49.056;9.240;2022-09-09T07:27:12;5.20;;;1.20;;
30181;SDS011;16990;49.056;9.240;2022-09-09T07:29:38;7.35;;;1.33;;
30181;SDS011;16990;49.056;9.240;2022-09-09T07:32:05;3.90;;;0.98;;
30181;SDS011;16990;49.056;9.240;2022-09-09T07:34:31;4.72;;;1.08;;
30181;SDS011;16990;49.056;9.240;2022-09-09T07:37:00;6.65;;;1.50;;
30181;SDS011;16990;49.056;9.240;2022-09-09T07:39:26;7.00;;;0.98;;
30181;SDS011;16990;49.056;9.240;2022-09-09T07:41:53;3.47;;;1.02;;
30181;SDS011;16990;49.056;9.240;2022-09-09T07:44:21;6.03;;;1.45;;
30181;SDS011;16990;49.056;9.240;2022-09-09T07:46:49;7.82;;;1.45;;
30181;SDS011;16990;49.056;9.240;2022-09-09T07:49:16;5.78;;;1.70;;
30181;SDS011;16990;49.056;9.240;2022-09-09T07:51:44;9.38;;;1.20;;
30181;SDS011;16990;49.056;9.240;2022-09-09T07:54:15;9.50;;;1.17;;
30181;SDS011;16990;49.056;9.240;2022-09-09T07:56:45;6.88;;;1.10;;
30181;SDS011;16990;49.056;9.240;2022-09-09T07:59:11;5.40;;;1.17;;
30181;SDS011;16990;49.056;9.240;2022-09-09T08:01:39;8.63;;;1.05;;
30181;SDS011;16990;49.056;9.240;2022-09-09T08:04:08;4.78;;;1.05;;
30181;SDS011;16990;49.056;9.240;2022-09-09T08:06:41;12.05;;;1.38;;
30181;SDS011;16990;49.056;9.240;2022-09-09T08:09:09;5.18;;;1.30;;
30181;SDS011;16990;49.056;9.240;2022-09-09T08:11:38;6.35;;;1.13;;
30181;SDS011;16990;49.056;9.240;2022-09-09T08:14:06;8.38;;;1.83;;
30181;SDS011;16990;49.056;9.240;2022-09-09T08:16:34;8.25;;;1.40;;
30181;SDS011;16990;49.056;9.240;2022-09-09T08:19:03;6.60;;;1.17;;
30181;SDS011;16990;49.056;9.240;2022-09-09T08:21:32;8.93;;;1.73;;
30181;SDS011;16990;49.056;9.240;2022-09-09T08:24:02;8.68;;;1.30;;
30181;SDS011;16990;49.056;9.240;2022-09-09T08:26:31;16.17;;;1.30;;
30181;SDS011;16990;49.056;9.240;2022-09-09T08:29:01;9.70;;;1.65;;
30181;SDS011;16990;49.056;9.240;2022-09-09T08:31:30;6.88;;;1.33;;
30181;SDS011;16990;49.056;9.240;2022-09-09T08:33:58;4.18;;;0.88;;
30181;SDS011;16990;49.056;9.240;2022-09-09T08:36:27;6.43;;;1.63;;
30181;SDS011;16990;49.056;9.240;2022-09-09T08:38:55;9.15;;;1.23;;
30181;SDS011;16990;49.056;9.240;2022-09-09T08:41:30;8.00;;;1.25;;
30181;SDS011;16990;49.056;9.240;2022-09-09T08:44:08;17.77;;;1.98;;
30181;SDS011;16990;49.056;9.240;2022-09-09T08:46:43;2.28;;;0.82;;
30181;SDS011;16990;49.056;9.240;2022-09-09T08:49:18;12.70;;;1.20;;
30181;SDS011;16990;49.056;9.240;2022-09-09T08:51:57;8.75;;;1.25;;
30181;SDS011;16990;49.056;9.240;2022-09-09T08:54:24;9.73;;;1.40;;
30181;SDS011;16990;49.056;9.240;2022-09-09T08:56:58;11.40;;;1.35;;
30181;SDS011;16990;49.056;9.240;2022-09-09T08:59:26;3.70;;;0.93;;
30181;SDS011;16990;49.056;9.240;2022-09-09T09:01:58;4.13;;;1.30;;
30181;SDS011;16990;49.056;9.240;2022-09-09T09:04:49;5.35;;;1.00;;
30181;SDS011;16990;49.056;9.240;2022-09-09T09:07:28;6.38;;;1.10;;
30181;SDS011;16990;49.056;9.240;2022-09-09T09:10:10;1.70;;;0.60;;
30181;SDS011;16990;49.056;9.240;2022-09-09T09:12:43;8.10;;;1.35;;
30181;SDS011;16990;49.056;9.240;2022-09-09T09:15:16;4.05;;;1.02;;
30181;SDS011;16990;49.056;9.240;2022-09-09T09:17:46;5.35;;;1.40;;
30181;SDS011;16990;49.056;9.240;2022-09-09T09:20:14;5.30;;;0.82;;
30181;SDS011;16990;49.056;9.240;2022-09-09T09:22:45;5.00;;;1.08;;
30181;SDS011;16990;49.056;9.240;2022-09-09T09:25:17;8.10;;;1.08;;
30181;SDS011;16990;49.056;9.240;2022-09-09T09:27:47;8.85;;;1.40;;
30181;SDS011;16990;49.056;9.240;2022-09-09T09:30:22;2.40;;;0.70;;
30181;SDS011;16990;49.056;9.240;2022-09-09T09:32:51;4.60;;;0.80;;
30181;SDS011;16990;49.056;9.240;2022-09-09T09:35:21;5.20;;;1.08;;
30181;SDS011;16990;49.056;9.240;2022-09-09T09:37:49;5.75;;;1.20;;
30181;SDS011;16990;49.056;9.240;2022-09-09T09:40:17;5.70;;;1.33;;
30181;SDS011;16990;49.056;9.240;2022-09-09T09:42:59;5.90;;;1.25;;
30181;SDS011;16990;49.056;9.240;2022-09-09T09:45:31;5.85;;;1.05;;
30181;SDS011;16990;49.056;9.240;2022-09-09T09:48:00;3.90;;;1.00;;
30181;SDS011;16990;49.056;9.240;2022-09-09T09:50:29;8.18;;;1.17;;
30181;SDS011;16990;49.056;9.240;2022-09-09T09:52:57;4.90;;;1.33;;
30181;SDS011;16990;49.056;9.240;2022-09-09T09:55:25;13.45;;;1.33;;
30181;SDS011;16990;49.056;9.240;2022-09-09T09:58:00;8.13;;;1.92;;
30181;SDS011;16990;49.056;9.240;2022-09-09T10:00:29;5.70;;;1.30;;
30181;SDS011;16990;49.056;9.240;2022-09-09T10:02:56;11.98;;;1.90;;
30181;SDS011;16990;49.056;9.240;2022-09-09T10:05:24;4.45;;;1.05;;
30181;SDS011;16990;49.056;9.240;2022-09-09T10:08:02;8.27;;;1.25;;
30181;SDS011;16990;49.056;9.240;2022-09-09T10:10:42;7.93;;;1.48;;
30181;SDS011;16990;49.056;9.240;2022-09-09T10:13:18;4.03;;;1.17;;
30181;SDS011;16990;49.056;9.240;2022-09-09T10:15:53;10.13;;;1.52;;
30181;SDS011;16990;49.056;9.240;2022-09-09T10:18:49;12.35;;;2.08;;
30181;SDS011;16990;49.056;9.240;2022-09-09T10:21:32;19.88;;;2.72;;
30181;SDS011;16990;49.056;9.240;2022-09-09T10:27:11;24.77;;;3.08;;
30181;SDS011;16990;49.056;9.240;2022-09-09T10:32:41;8.82;;;1.58;;
30181;SDS011;16990;49.056;9.240;2022-09-09T10:35:17;7.82;;;1.33;;
30181;SDS011;16990;49.056;9.240;2022-09-09T10:38:08;7.78;;;1.75;;
30181;SDS011;16990;49.056;9.240;2022-09-09T10:40:57;9.07;;;1.88;;
30181;SDS011;16990;49.056;9.240;2022-09-09T10:43:48;9.02;;;1.23;;
30181;SDS011;16990;49.056;9.240;2022-09-09T10:46:27;6.40;;;1.33;;
30181;SDS011;16990;49.056;9.240;2022-09-09T10:49:07;11.68;;;1.40;;
30181;SDS011;16990;49.056;9.240;2022-09-09T10:51:45;5.93;;;1.15;;
30181;SDS011;16990;49.056;9.240;2022-09-09T10:54:23;8.57;;;1.30;;
30181;SDS011;16990;49.056;9.240;2022-09-09T10:57:03;8.73;;;1.20;;
30181;SDS011;16990;49.056;9.240;2022-09-09T10:59:37;3.72;;;1.10;;
30181;SDS011;16990;49.056;9.240;2022-09-09T11:02:12;6.53;;;1.45;;
30181;SDS011;16990;49.056;9.240;2022-09-09T11:04:47;7.18;;;0.98;;
30181;SDS011;16990;49.056;9.240;2022-09-09T11:07:22;5.65;;;1.20;;
30181;SDS011;16990;49.056;9.240;2022-09-09T11:09:56;5.15;;;1.17;;
30181;SDS011;16990;49.056;9.240;2022-09-09T11:12:28;3.97;;;0.93;;
30181;SDS011;16990;49.056;9.240;2022-09-09T11:14:58;6.20;;;0.95;;
30181;SDS011;16990;49.056;9.240;2022-09-09T11:17:33;10.52;;;1.90;;
30181;SDS011;16990;49.056;9.240;2022-09-09T11:20:12;6.57;;;1.70;;
30181;SDS011;16990;49.056;9.240;2022-09-09T11:22:42;4.68;;;1.13;;
30181;SDS011;16990;49.056;9.240;2022-09-09T11:25:18;7.97;;;1.25;;
30181;SDS011;16990;49.056;9.240;2022-09-09T11:27:53;4.82;;;0.63;;
30181;SDS011;16990;49.056;9.240;2022-09-09T11:30:34;11.35;;;1.40;;
30181;SDS011;16990;49.056;9.240;2022-09-09T11:39:26;1.30;;;0.52;;
30181;SDS011;16990;49.056;9.240;2022-09-09T11:42:18;2.25;;;0.52;;
30181;SDS011;16990;49.056;9.240;2022-09-09T11:44:47;1.38;;;0.57;;
30181;SDS011;16990;49.056;9.240;2022-09-09T11:47:21;6.75;;;0.93;;
30181;SDS011;16990;49.056;9.240;2022-09-09T11:49:54;3.05;;;0.40;;
30181;SDS011;16990;49.056;9.240;2022-09-09T11:52:24;2.45;;;0.52;;
30181;SDS011;16990;49.056;9.240;2022-09-09T11:55:07;1.92;;;0.40;;
30181;SDS011;16990;49.056;9.240;2022-09-09T11:57:37;2.20;;;0.70;;
30181;SDS011;16990;49.056;9.240;2022-09-09T12:00:05;1.35;;;0.40;;
30181;SDS011;16990;49.056;9.240;2022-09-09T12:02:34;2.08;;;0.60;;
30181;SDS011;16990;49.056;9.240;2022-09-09T12:05:02;2.42;;;0.60;;
30181;SDS011;16990;49.056;9.240;2022-09-09T12:07:35;2.13;;;0.60;;
30181;SDS011;16990;49.056;9.240;2022-09-09T12:10:18;5.15;;;0.52;;
30181;SDS011;16990;49.056;9.240;2022-09-09T12:12:48;5.25;;;0.30;;
30181;SDS011;16990;49.056;9.240;2022-09-09T12:15:23;1.23;;;0.75;;
30181;SDS011;16990;49.056;9.240;2022-09-09T12:17:54;1.98;;;0.50;;
30181;SDS011;16990;49.056;9.240;2022-09-09T12:20:23;2.47;;;0.60;;
30181;SDS011;16990;49.056;9.240;2022-09-09T12:25:58;2.28;;;1.17;;
30181;SDS011;16990;49.056;9.240;2022-09-09T12:28:33;2.92;;;0.60;;
30181;SDS011;16990;49.056;9.240;2022-09-09T12:31:10;0.88;;;0.38;;
30181;SDS011;16990;49.056;9.240;2022-09-09T12:33:44;1.35;;;0.50;;
30181;SDS011;16990;49.056;9.240;2022-09-09T12:36:13;2.88;;;0.50;;
30181;SDS011;16990;49.056;9.240;2022-09-09T12:38:44;1.27;;;0.40;;
30181;SDS011;16990;49.056;9.240;2022-09-09T12:41:18;1.77;;;0.22;;
30181;SDS011;16990;49.056;9.240;2022-09-09T12:43:47;2.17;;;0.57;;
30181;SDS011;16990;49.056;9.240;2022-09-09T12:46:17;4.75;;;0.65;;
30181;SDS011;16990;49.056;9.240;2022-09-09T12:48:51;1.80;;;0.40;;
30181;SDS011;16990;49.056;9.240;2022-09-09T12:51:21;0.57;;;0.50;;
30181;SDS011;16990;49.056;9.240;2022-09-09T12:53:53;1.20;;;0.40;;
30181;SDS011;16990;49.056;9.240;2022-09-09T12:56:22;2.35;;;0.50;;
30181;SDS011;16990;49.056;9.240;2022-09-09T12:58:52;1.73;;;0.50;;
30181;SDS011;16990;49.056;9.240;2022-09-09T13:01:20;2.38;;;0.52;;
30181;SDS011;16990;49.056;9.240;2022-09-09T13:03:50;1.20;;;0.50;;
30181;SDS011;16990;49.056;9.240;2022-09-09T13:06:19;4.90;;;0.70;;
30181;SDS011;16990;49.056;9.240;2022-09-09T13:08:49;2.97;;;0.75;;
30181;SDS011;16990;49.056;9.240;2022-09-09T13:11:18;1.33;;;0.50;;
30181;SDS011;16990;49.056;9.240;2022-09-09T13:13:52;1.48;;;0.52;;
30181;SDS011;16990;49.056;9.240;2022-09-09T13:16:21;5.80;;;0.68;;
30181;SDS011;16990;49.056;9.240;2022-09-09T13:18:51;9.07;;;0.80;;
30181;SDS011;16990;49.056;9.240;2022-09-09T13:21:30;3.25;;;0.77;;
30181;SDS011;16990;49.056;9.240;2022-09-09T13:23:58;4.20;;;0.52;;
30181;SDS011;16990;49.056;9.240;2022-09-09T13:26:29;2.42;;;1.10;;
30181;SDS011;16990;49.056;9.240;2022-09-09T13:29:07;2.55;;;0.68;;
30181;SDS011;16990;49.056;9.240;2022-09-09T13:31:43;3.20;;;0.60;;
30181;SDS011;16990;49.056;9.240;2022-09-09T13:34:11;5.63;;;1.10;;
30181;SDS011;16990;49.056;9.240;2022-09-09T13:36:39;5.20;;;0.90;;
30181;SDS011;16990;49.056;9.240;2022-09-09T13:39:12;4.95;;;1.05;;
30181;SDS011;16990;49.056;9.240;2022-09-09T13:41:44;4.80;;;0.95;;
30181;SDS011;16990;49.056;9.240;2022-09-09T13:44:17;3.03;;;0.70;;
30181;SDS011;16990;49.056;9.240;2022-09-09T13:46:58;6.65;;;1.50;;
30181;SDS011;16990;49.056;9.240;2022-09-09T13:49:27;1.58;;;0.70;;
30181;SDS011;16990;49.056;9.240;2022-09-09T13:52:03;2.90;;;0.75;;
30181;SDS011;16990;49.056;9.240;2022-09-09T13:54:32;4.57;;;0.90;;
30181;SDS011;16990;49.056;9.240;2022-09-09T13:57:01;4.43;;;0.80;;
30181;SDS011;16990;49.056;9.240;2022-09-09T13:59:29;6.53;;;0.90;;
30181;SDS011;16990;49.056;9.240;2022-09-09T14:01:56;2.40;;;0.65;;
30181;SDS011;16990;49.056;9.240;2022-09-09T14:04:24;6.78;;;0.98;;
30181;SDS011;16990;49.056;9.240;2022-09-09T14:06:51;3.33;;;0.88;;
30181;SDS011;16990;49.056;9.240;2022-09-09T14:09:18;4.00;;;0.65;;
30181;SDS011;16990;49.056;9.240;2022-09-09T14:11:45;6.50;;;0.75;;
30181;SDS011;16990;49.056;9.240;2022-09-09T14:14:13;4.57;;;0.55;;
30181;SDS011;16990;49.056;9.240;2022-09-09T14:16:40;2.83;;;0.70;;
30181;SDS011;16990;49.056;9.240;2022-09-09T14:19:07;4.15;;;0.60;;
30181;SDS011;16990;49.056;9.240;2022-09-09T14:21:34;8.48;;;1.08;;
30181;SDS011;16990;49.056;9.240;2022-09-09T14:24:01;4.55;;;0.93;;
30181;SDS011;16990;49.056;9.240;2022-09-09T14:26:29;3.50;;;0.95;;
30181;SDS011;16990;49.056;9.240;2022-09-09T14:28:56;1.10;;;0.43;;
30181;SDS011;16990;49.056;9.240;2022-09-09T14:31:24;6.40;;;1.02;;
30181;SDS011;16990;49.056;9.240;2022-09-09T14:33:51;7.63;;;0.95;;
30181;SDS011;16990;49.056;9.240;2022-09-09T14:36:18;3.88;;;0.80;;
30181;SDS011;16990;49.056;9.240;2022-09-09T14:38:45;6.38;;;0.80;;
30181;SDS011;16990;49.056;9.240;2022-09-09T14:41:13;9.18;;;1.63;;
30181;SDS011;16990;49.056;9.240;2022-09-09T14:43:42;6.97;;;0.90;;
30181;SDS011;16990;49.056;9.240;2022-09-09T14:46:09;2.88;;;0.63;;
30181;SDS011;16990;49.056;9.240;2022-09-09T14:48:39;3.97;;;0.68;;
30181;SDS011;16990;49.056;9.240;2022-09-09T14:51:07;3.65;;;0.85;;
30181;SDS011;16990;49.056;9.240;2022-09-09T14:53:34;4.47;;;0.90;;
30181;SDS011;16990;49.056;9.240;2022-09-09T14:56:04;5.00;;;0.80;;
30181;SDS011;16990;49.056;9.240;2022-09-09T14:58:32;3.92;;;0.98;;
30181;SDS011;16990;49.056;9.240;2022-09-09T15:01:03;1.98;;;0.65;;
30181;SDS011;16990;49.056;9.240;2022-09-09T15:03:31;6.40;;;0.70;;
30181;SDS011;16990;49.056;9.240;2022-09-09T15:06:04;5.22;;;0.85;;
30181;SDS011;16990;49.056;9.240;2022-09-09T15:08:31;10.98;;;1.70;;
30181;SDS011;16990;49.056;9.240;2022-09-09T15:10:58;2.08;;;0.60;;
30181;SDS011;16990;49.056;9.240;2022-09-09T15:13:26;3.53;;;1.25;;
30181;SDS011;16990;49.056;9.240;2022-09-09T15:15:53;3.75;;;1.17;;
30181;SDS011;16990;49.056;9.240;2022-09-09T15:18:20;3.60;;;0.80;;
30181;SDS011;16990;49.056;9.240;2022-09-09T15:20:47;5.40;;;0.73;;
30181;SDS011;16990;49.056;9.240;2022-09-09T15:23:15;2.60;;;0.60;;